Terminal Aerodrome Forecast
Issued by NWS

Home | Current Version | Previous Version | Graphics & Text | Print | Product List | Glossary On
Versions: 1 2 3 4 5 6 7 8 9 10 11 12 13 14 15 16 17 18 19 20 21
319
FTUS42 KMHX 201140
TAFOAJ
TAF
KOAJ 201140Z 2012/2112 23007KT 6SM -SHRA OVC025
     FM201800 22007KT 3SM +SHRA VCTS OVC030CB
     FM210100 VRB03KT 6SM SHRA OVC020
     FM210700 VRB03KT 6SM SHRA OVC010
      AMD LTD TO CLD VIS AND WIND=

USA.gov is the U.S. government's official web portal to all federal, state and local government web resources and services.